Time;durP1;ratioP1;P1;durP2;ratioP2;P2;SDS_P1;SDS_P2;PMS_P1;PMS_P2;Temp;Humidity;BMP_temperature;BMP_pressure;BME280_temperature;BME280_humidity;BME280_pressure;Samples;Min_cycle;Max_cycle;Signal;HPM_P1;HPM_P2
2022/09/11 00:00:04;;;;;;;5.18;0.95;;;;;;;;;;5003188;28;20411;-68
2022/09/11 00:02:40;;;;;;;3.30;0.88;;;;;;;;;;5010835;28;20532;-68
2022/09/11 00:05:10;;;;;;;2.22;0.90;;;;;;;;;;5007934;28;20046;-68
2022/09/11 00:07:40;;;;;;;5.10;1.02;;;;;;;;;;5014444;28;20271;-68
2022/09/11 00:10:11;;;;;;;3.80;1.20;;;;;;;;;;5033905;27;20056;-67
2022/09/11 00:12:42;;;;;;;2.72;0.90;;;;;;;;;;5098027;28;20052;-68
2022/09/11 00:15:12;;;;;;;1.77;0.77;;;;;;;;;;5089554;28;20070;-68
2022/09/11 00:17:42;;;;;;;3.42;1.10;;;;;;;;;;5096493;28;20051;-68
2022/09/11 00:20:12;;;;;;;7.00;0.85;;;;;;;;;;5095639;28;20056;-68
2022/09/11 00:22:42;;;;;;;2.10;0.65;;;;;;;;;;5082378;28;20052;-68
2022/09/11 00:25:13;;;;;;;4.60;0.80;;;;;;;;;;5048935;28;20055;-68
2022/09/11 00:27:43;;;;;;;2.42;1.00;;;;;;;;;;5079652;28;20061;-68
2022/09/11 00:30:13;;;;;;;3.78;1.20;;;;;;;;;;5089395;28;20056;-67
2022/09/11 00:32:43;;;;;;;2.60;1.00;;;;;;;;;;5061465;28;20057;-67
2022/09/11 00:35:13;;;;;;;3.63;1.02;;;;;;;;;;5044303;28;20052;-67
2022/09/11 00:37:44;;;;;;;5.07;1.15;;;;;;;;;;5026904;28;20050;-67
2022/09/11 00:40:15;;;;;;;5.95;0.75;;;;;;;;;;5003363;28;20054;-67
2022/09/11 00:42:52;;;;;;;5.03;1.00;;;;;;;;;;5003650;28;20077;-67
2022/09/11 00:45:25;;;;;;;4.30;1.20;;;;;;;;;;4999682;28;20568;-68
2022/09/11 00:47:58;;;;;;;3.42;1.17;;;;;;;;;;5010190;28;20046;-68
2022/09/11 00:50:31;;;;;;;4.40;1.45;;;;;;;;;;5005725;28;20405;-67
2022/09/11 00:53:08;;;;;;;3.50;1.05;;;;;;;;;;5001798;28;20454;-67
2022/09/11 00:55:44;;;;;;;3.95;1.27;;;;;;;;;;4972284;28;20060;-67
2022/09/11 00:58:20;;;;;;;4.53;1.30;;;;;;;;;;5008559;28;20053;-67
2022/09/11 01:00:53;;;;;;;2.25;1.10;;;;;;;;;;5003725;28;20056;-67
2022/09/11 01:03:25;;;;;;;2.38;0.95;;;;;;;;;;4969936;28;20534;-67
2022/09/11 01:05:56;;;;;;;1.92;0.88;;;;;;;;;;4957685;28;20062;-67
2022/09/11 01:08:26;;;;;;;5.05;0.90;;;;;;;;;;4968209;28;20062;-67
2022/09/11 01:11:19;;;;;;;6.00;1.30;;;;;;;;;;4952798;28;20054;-67
2022/09/11 01:14:16;;;;;;;2.72;0.90;;;;;;;;;;4953726;28;20070;-67
2022/09/11 01:17:23;;;;;;;1.98;0.95;;;;;;;;;;4986080;28;20062;-67
2022/09/11 01:19:54;;;;;;;6.97;1.00;;;;;;;;;;4988386;28;20054;-67
2022/09/11 01:22:38;;;;;;;2.25;0.73;;;;;;;;;;4989971;28;20058;-67
2022/09/11 01:25:30;;;;;;;2.92;0.85;;;;;;;;;;4936126;28;20047;-67
2022/09/11 01:28:12;;;;;;;3.53;0.77;;;;;;;;;;4978777;28;20678;-67
2022/09/11 01:30:55;;;;;;;4.13;1.13;;;;;;;;;;4989520;28;20058;-67
2022/09/11 01:33:48;;;;;;;1.92;0.80;;;;;;;;;;5003749;28;20057;-67
2022/09/11 01:36:34;;;;;;;2.55;1.13;;;;;;;;;;5000289;28;20406;-67
2022/09/11 01:39:05;;;;;;;4.90;1.20;;;;;;;;;;4943007;28;20410;-67
2022/09/11 01:41:47;;;;;;;5.70;1.90;;;;;;;;;;4938914;28;20054;-67
2022/09/11 01:44:24;;;;;;;4.70;1.67;;;;;;;;;;4928434;29;20467;-67
2022/09/11 01:46:55;;;;;;;9.27;2.25;;;;;;;;;;4932398;29;20059;-67
2022/09/11 01:49:35;;;;;;;9.68;1.95;;;;;;;;;;4898015;29;20064;-67
2022/09/11 01:52:15;;;;;;;9.15;3.10;;;;;;;;;;4932687;29;20052;-67
2022/09/11 01:54:51;;;;;;;8.05;2.17;;;;;;;;;;4944294;29;20094;-67
2022/09/11 01:57:35;;;;;;;8.27;2.38;;;;;;;;;;4870154;29;20430;-67
2022/09/11 02:00:09;;;;;;;8.55;2.83;;;;;;;;;;4866490;29;20053;-67
2022/09/11 02:02:51;;;;;;;8.82;2.70;;;;;;;;;;4861048;29;20057;-67
2022/09/11 02:05:47;;;;;;;12.30;3.42;;;;;;;;;;4882953;29;20053;-67
2022/09/11 02:08:40;;;;;;;12.10;3.47;;;;;;;;;;4894562;29;20072;-67
2022/09/11 02:11:13;;;;;;;13.18;4.10;;;;;;;;;;4848235;29;20079;-67
2022/09/11 02:13:49;;;;;;;15.80;4.70;;;;;;;;;;4887150;29;20056;-66
2022/09/11 02:16:20;;;;;;;15.73;4.65;;;;;;;;;;4891032;29;20065;-66
2022/09/11 02:18:59;;;;;;;14.40;4.28;;;;;;;;;;4900374;29;20461;-66
2022/09/11 02:21:31;;;;;;;16.80;5.40;;;;;;;;;;4882004;29;20761;-66
2022/09/11 02:24:02;;;;;;;19.20;5.15;;;;;;;;;;4928647;29;20056;-66
2022/09/11 02:26:40;;;;;;;18.42;4.93;;;;;;;;;;4890806;29;20069;-66
2022/09/11 02:29:12;;;;;;;11.75;4.13;;;;;;;;;;4894423;29;20057;-66
2022/09/11 02:31:43;;;;;;;12.27;4.32;;;;;;;;;;4898719;29;20060;-66
2022/09/11 02:34:14;;;;;;;14.65;4.20;;;;;;;;;;4929219;29;20059;-66
2022/09/11 02:37:02;;;;;;;13.55;4.47;;;;;;;;;;4881955;29;20064;-66
2022/09/11 02:40:13;;;;;;;10.75;4.47;;;;;;;;;;4913161;29;20060;-66
2022/09/11 02:43:01;;;;;;;;;;;;;;;;;;4932330;29;20051;-66
2022/09/11 02:45:37;;;;;;;13.18;3.70;;;;;;;;;;4932020;29;19966;-66
2022/09/11 02:48:25;;;;;;;11.30;3.72;;;;;;;;;;4932121;29;20064;-67
2022/09/11 02:51:11;;;;;;;11.55;3.65;;;;;;;;;;4932196;29;20599;-66
2022/09/11 02:54:16;;;;;;;11.07;4.28;;;;;;;;;;4931687;29;20062;-66
2022/09/11 02:57:06;;;;;;;11.38;3.80;;;;;;;;;;4943606;29;20055;-66
2022/09/11 02:59:48;;;;;;;12.70;3.83;;;;;;;;;;4950989;29;20047;-66
2022/09/11 03:02:19;;;;;;;12.40;4.35;;;;;;;;;;4966047;28;20066;-66
2022/09/11 03:04:50;;;;;;;14.63;4.32;;;;;;;;;;4980051;28;20062;-66
2022/09/11 03:07:20;;;;;;;12.20;4.22;;;;;;;;;;4959931;28;20051;-67
2022/09/11 03:09:52;;;;;;;13.50;4.38;;;;;;;;;;4970244;28;20043;-67
2022/09/11 03:12:26;;;;;;;11.15;3.70;;;;;;;;;;4969862;28;20062;-67
2022/09/11 03:14:56;;;;;;;11.70;4.13;;;;;;;;;;4954025;28;20050;-67
2022/09/11 03:17:27;;;;;;;14.15;3.95;;;;;;;;;;4937872;28;20047;-67
2022/09/11 03:19:58;;;;;;;12.63;4.28;;;;;;;;;;4956922;28;20055;-67
2022/09/11 03:22:30;;;;;;;11.77;3.70;;;;;;;;;;4931570;29;20055;-67
2022/09/11 03:25:01;;;;;;;11.02;3.42;;;;;;;;;;4884738;29;20070;-67
2022/09/11 03:27:32;;;;;;;14.40;4.47;;;;;;;;;;4931167;29;20064;-67
2022/09/11 03:30:02;;;;;;;11.90;3.95;;;;;;;;;;4931523;29;20520;-67
2022/09/11 03:32:32;;;;;;;11.38;4.07;;;;;;;;;;4950547;29;20060;-67
2022/09/11 03:35:02;;;;;;;10.13;3.75;;;;;;;;;;4950784;29;20056;-67
2022/09/11 03:37:32;;;;;;;9.65;3.53;;;;;;;;;;4988939;28;20058;-67
2022/09/11 03:40:03;;;;;;;12.65;3.58;;;;;;;;;;4940193;29;20063;-66
2022/09/11 03:42:34;;;;;;;11.80;4.38;;;;;;;;;;4921315;29;20059;-67
2022/09/11 03:45:05;;;;;;;9.80;6.60;;;;;;;;;;4931049;29;20515;-67
2022/09/11 03:47:36;;;;;;;9.43;3.92;;;;;;;;;;4931162;29;20048;-67
2022/09/11 03:50:10;;;;;;;9.20;3.55;;;;;;;;;;4940644;29;20071;-67
2022/09/11 03:52:42;;;;;;;11.60;3.67;;;;;;;;;;4920827;29;20052;-67
2022/09/11 03:55:12;;;;;;;8.45;3.05;;;;;;;;;;4908574;29;20078;-67
2022/09/11 03:57:43;;;;;;;8.23;3.33;;;;;;;;;;4912171;29;20048;-67
2022/09/11 04:00:13;;;;;;;8.10;3.22;;;;;;;;;;4922464;29;20063;-67
2022/09/11 04:02:49;;;;;;;8.55;3.35;;;;;;;;;;4931514;29;20159;-67
2022/09/11 04:05:46;;;;;;;11.35;3.75;;;;;;;;;;4931314;29;20060;-67
2022/09/11 04:08:16;;;;;;;12.98;3.38;;;;;;;;;;4893189;29;20059;-67
2022/09/11 04:10:46;;;;;;;8.57;3.25;;;;;;;;;;4906992;29;20055;-67
2022/09/11 04:13:17;;;;;;;8.18;2.92;;;;;;;;;;4912199;29;20101;-67
2022/09/11 04:15:48;;;;;;;11.02;3.33;;;;;;;;;;4879255;29;20434;-67
2022/09/11 04:18:18;;;;;;;9.70;3.45;;;;;;;;;;4893097;29;20064;-68
2022/09/11 04:20:48;;;;;;;8.68;3.15;;;;;;;;;;4862041;29;20136;-67
2022/09/11 04:23:18;;;;;;;8.18;3.92;;;;;;;;;;4930982;29;20058;-67
2022/09/11 04:25:49;;;;;;;13.43;4.35;;;;;;;;;;4949760;28;20047;-67
2022/09/11 04:28:21;;;;;;;9.60;3.35;;;;;;;;;;4969244;28;20050;-67
2022/09/11 04:30:52;;;;;;;10.52;3.80;;;;;;;;;;4969857;28;20380;-67
2022/09/11 04:33:23;;;;;;;8.93;4.00;;;;;;;;;;4972890;28;20070;-67
2022/09/11 04:35:54;;;;;;;9.02;3.70;;;;;;;;;;4932335;29;20530;-67
2022/09/11 04:38:24;;;;;;;6.88;2.65;;;;;;;;;;4953315;28;20059;-67
2022/09/11 04:40:54;;;;;;;9.68;3.28;;;;;;;;;;4953432;29;20059;-67
2022/09/11 04:43:24;;;;;;;9.45;3.25;;;;;;;;;;4921487;29;20059;-67
2022/09/11 04:46:04;;;;;;;15.45;3.92;;;;;;;;;;4902958;29;20550;-67
2022/09/11 04:48:37;;;;;;;7.93;3.13;;;;;;;;;;4923568;29;20052;-67
2022/09/11 04:51:08;;;;;;;8.90;2.95;;;;;;;;;;4930791;29;20064;-67
2022/09/11 04:53:39;;;;;;;7.43;2.88;;;;;;;;;;4944766;28;20054;-67
2022/09/11 04:56:13;;;;;;;9.02;3.15;;;;;;;;;;4953022;28;20581;-67
2022/09/11 04:58:56;;;;;;;8.45;3.25;;;;;;;;;;4914770;29;20063;-67
2022/09/11 05:01:30;;;;;;;6.82;2.72;;;;;;;;;;4895426;29;20560;-67
2022/09/11 05:04:01;;;;;;;6.95;2.40;;;;;;;;;;4807118;29;20045;-67
2022/09/11 05:06:32;;;;;;;9.80;3.13;;;;;;;;;;4877088;29;20049;-67
2022/09/11 05:09:07;;;;;;;7.32;3.13;;;;;;;;;;4877277;29;20068;-67
2022/09/11 05:11:38;;;;;;;7.47;3.38;;;;;;;;;;4876900;29;20064;-67
2022/09/11 05:14:10;;;;;;;8.32;2.67;;;;;;;;;;4872094;29;20053;-67
2022/09/11 05:16:43;;;;;;;6.95;3.10;;;;;;;;;;4862691;29;20045;-67
2022/09/11 05:19:16;;;;;;;6.65;2.72;;;;;;;;;;4895606;29;20056;-67
2022/09/11 05:21:47;;;;;;;8.43;2.60;;;;;;;;;;4861012;29;20049;-67
2022/09/11 05:24:18;;;;;;;4.35;2.33;;;;;;;;;;4845965;29;20060;-67
2022/09/11 05:26:48;;;;;;;6.65;2.60;;;;;;;;;;4857792;29;20442;-67
2022/09/11 05:29:19;;;;;;;5.82;2.70;;;;;;;;;;4854810;29;20087;-67
2022/09/11 05:32:00;;;;;;;9.13;2.78;;;;;;;;;;4855141;29;20416;-67
2022/09/11 05:34:30;;;;;;;7.60;2.00;;;;;;;;;;4872308;29;20068;-67
2022/09/11 05:37:01;;;;;;;3.72;1.30;;;;;;;;;;4894905;29;20053;-67
2022/09/11 05:39:36;;;;;;;3.90;1.40;;;;;;;;;;4867011;29;20045;-67
2022/09/11 05:42:09;;;;;;;5.70;1.67;;;;;;;;;;4875825;29;20053;-67
2022/09/11 05:44:43;;;;;;;5.40;1.70;;;;;;;;;;4894740;29;20090;-67
2022/09/11 05:47:13;;;;;;;4.60;1.75;;;;;;;;;;4894750;29;20072;-67
2022/09/11 05:49:46;;;;;;;4.82;1.80;;;;;;;;;;4882584;29;20053;-67
2022/09/11 05:52:17;;;;;;;4.18;1.60;;;;;;;;;;4894804;29;20060;-67
2022/09/11 05:54:48;;;;;;;7.45;1.75;;;;;;;;;;4901017;29;20624;-67
2022/09/11 05:57:19;;;;;;;6.32;1.90;;;;;;;;;;4894718;29;20064;-67
2022/09/11 05:59:51;;;;;;;4.05;1.40;;;;;;;;;;4917362;29;20056;-67
2022/09/11 06:02:21;;;;;;;6.80;1.63;;;;;;;;;;4909839;29;20064;-67
2022/09/11 06:04:55;;;;;;;;;;;;;;;;;;4864034;29;20483;-67
2022/09/11 06:07:25;;;;;;;3.30;1.38;;;;;;;;;;4865940;29;19925;-67
2022/09/11 06:09:56;;;;;;;2.72;1.38;;;;;;;;;;4868964;29;20067;-67
2022/09/11 06:12:33;;;;;;;3.38;1.42;;;;;;;;;;4852408;29;20108;-67
2022/09/11 06:15:06;;;;;;;8.57;1.70;;;;;;;;;;4839190;29;20054;-67
2022/09/11 06:17:56;;;;;;;5.50;2.38;;;;;;;;;;4839355;29;20054;-67
2022/09/11 06:20:27;;;;;;;5.30;1.95;;;;;;;;;;4904838;29;20068;-67
2022/09/11 06:22:59;;;;;;;3.35;1.50;;;;;;;;;;4912821;29;20500;-67
2022/09/11 06:25:35;;;;;;;4.95;1.58;;;;;;;;;;4928015;29;20051;-67
2022/09/11 06:28:06;;;;;;;5.40;1.80;;;;;;;;;;4913155;29;20058;-67
2022/09/11 06:30:36;;;;;;;8.63;2.13;;;;;;;;;;4880087;29;20068;-67
2022/09/11 06:33:09;;;;;;;5.35;2.20;;;;;;;;;;4813241;29;20058;-67
2022/09/11 06:35:40;;;;;;;7.53;2.00;;;;;;;;;;4856790;29;20053;-67
2022/09/11 06:38:11;;;;;;;4.45;1.30;;;;;;;;;;4857088;29;20102;-67
2022/09/11 06:40:41;;;;;;;4.50;1.75;;;;;;;;;;4872325;29;20061;-67
2022/09/11 06:43:13;;;;;;;9.85;2.30;;;;;;;;;;4843356;29;20053;-67
2022/09/11 06:45:46;;;;;;;10.68;2.03;;;;;;;;;;4852232;29;20060;-67
2022/09/11 06:48:21;;;;;;;4.80;2.20;;;;;;;;;;4893489;29;20200;-67
2022/09/11 06:50:53;;;;;;;8.27;2.15;;;;;;;;;;4893625;29;20052;-67
2022/09/11 06:53:24;;;;;;;9.63;1.90;;;;;;;;;;4893228;29;20055;-67
2022/09/11 06:55:59;;;;;;;9.93;2.65;;;;;;;;;;4859290;29;20057;-67
2022/09/11 06:58:30;;;;;;;5.85;1.88;;;;;;;;;;4856745;29;20056;-67
2022/09/11 07:01:12;;;;;;;7.90;2.20;;;;;;;;;;4802478;29;20046;-67
2022/09/11 07:03:52;;;;;;;4.43;2.10;;;;;;;;;;4820032;29;20431;-67
2022/09/11 07:06:26;;;;;;;9.93;1.90;;;;;;;;;;4810827;29;20527;-67
2022/09/11 07:09:02;;;;;;;8.30;2.50;;;;;;;;;;4816041;29;20058;-67
2022/09/11 07:11:45;;;;;;;6.70;2.30;;;;;;;;;;4838110;29;20104;-67
2022/09/11 07:14:22;;;;;;;6.88;2.83;;;;;;;;;;4808844;29;20054;-67
2022/09/11 07:16:59;;;;;;;6.45;2.15;;;;;;;;;;4822862;29;20510;-67
2022/09/11 07:19:29;;;;;;;6.10;2.17;;;;;;;;;;4822932;29;20058;-67
2022/09/11 07:22:00;;;;;;;7.05;2.22;;;;;;;;;;4837842;29;20813;-67
2022/09/11 07:24:32;;;;;;;7.32;2.60;;;;;;;;;;4856234;29;20542;-67
2022/09/11 07:27:02;;;;;;;9.32;2.63;;;;;;;;;;4804336;29;20058;-67
2022/09/11 07:29:35;;;;;;;6.43;2.33;;;;;;;;;;4784852;29;20058;-67
2022/09/11 07:32:08;;;;;;;7.03;2.58;;;;;;;;;;4853690;29;20056;-67
2022/09/11 07:34:40;;;;;;;9.32;2.35;;;;;;;;;;4893378;29;20059;-67
2022/09/11 07:37:11;;;;;;;5.93;1.92;;;;;;;;;;4929530;29;20063;-67
2022/09/11 07:39:41;;;;;;;5.25;1.83;;;;;;;;;;4937575;29;20058;-67
2022/09/11 07:42:18;;;;;;;5.63;2.30;;;;;;;;;;4962190;28;20062;-67
2022/09/11 07:44:49;;;;;;;8.55;2.15;;;;;;;;;;4903528;29;20063;-67
2022/09/11 07:47:19;;;;;;;8.38;2.40;;;;;;;;;;4896302;29;20049;-67
2022/09/11 07:49:52;;;;;;;6.35;1.85;;;;;;;;;;4927212;29;20063;-67
2022/09/11 07:52:22;;;;;;;12.68;2.67;;;;;;;;;;4912335;29;20064;-67
2022/09/11 07:55:00;;;;;;;4.40;2.13;;;;;;;;;;4876972;29;20069;-67
2022/09/11 07:57:33;;;;;;;5.57;2.08;;;;;;;;;;4856305;29;20052;-67
2022/09/11 08:00:08;;;;;;;9.75;2.13;;;;;;;;;;4906291;29;20049;-67
2022/09/11 08:02:48;;;;;;;5.00;1.77;;;;;;;;;;4926290;29;20059;-67
2022/09/11 08:05:29;;;;;;;10.80;2.33;;;;;;;;;;4951273;28;20067;-67
2022/09/11 08:07:59;;;;;;;8.15;2.15;;;;;;;;;;4973165;28;20050;-67
2022/09/11 08:10:30;;;;;;;11.02;2.50;;;;;;;;;;4953411;29;20081;-67
2022/09/11 08:13:04;;;;;;;10.32;3.28;;;;;;;;;;4972768;28;20495;-67
2022/09/11 08:15:46;;;;;;;10.95;3.20;;;;;;;;;;4973047;28;20062;-67
2022/09/11 08:18:18;;;;;;;6.15;1.90;;;;;;;;;;4943659;28;20055;-67
2022/09/11 08:20:50;;;;;;;8.55;2.22;;;;;;;;;;4941475;28;20058;-67
2022/09/11 08:23:21;;;;;;;6.03;2.10;;;;;;;;;;4969700;28;20050;-67
2022/09/11 08:25:53;;;;;;;11.05;1.83;;;;;;;;;;4989271;28;20709;-67
2022/09/11 08:28:23;;;;;;;8.07;2.55;;;;;;;;;;4956243;28;20071;-67
2022/09/11 08:30:57;;;;;;;8.80;2.50;;;;;;;;;;4960741;28;20100;-67
2022/09/11 08:33:32;;;;;;;5.82;2.15;;;;;;;;;;4956260;28;20047;-67
2022/09/11 08:36:05;;;;;;;4.07;1.67;;;;;;;;;;4934059;29;20051;-67
2022/09/11 08:38:38;;;;;;;4.82;2.00;;;;;;;;;;4953191;28;20082;-67
2022/09/11 08:41:11;;;;;;;6.88;2.03;;;;;;;;;;4953570;29;20520;-67
2022/09/11 08:43:51;;;;;;;3.90;1.65;;;;;;;;;;4878805;29;20404;-67
2022/09/11 08:46:30;;;;;;;7.32;2.00;;;;;;;;;;4918937;29;20535;-67
2022/09/11 08:49:16;;;;;;;6.75;2.28;;;;;;;;;;4952921;29;20051;-68
2022/09/11 08:51:50;;;;;;;4.82;1.77;;;;;;;;;;4972230;28;20050;-67
2022/09/11 08:54:33;;;;;;;4.82;1.80;;;;;;;;;;4952493;29;20059;-67
2022/09/11 08:57:53;;;;;;;7.53;2.10;;;;;;;;;;4933596;29;20850;-67
2022/09/11 09:00:56;;;;;;;5.95;1.88;;;;;;;;;;4867166;29;20080;-67
2022/09/11 09:03:55;;;;;;;5.90;1.90;;;;;;;;;;4840140;29;20065;-67
2022/09/11 09:07:01;;;;;;;6.60;2.38;;;;;;;;;;4852269;29;20069;-67
2022/09/11 09:09:45;;;;;;;5.82;1.75;;;;;;;;;;4858767;29;20061;-66
2022/09/11 09:12:23;;;;;;;11.57;2.53;;;;;;;;;;4838843;29;20593;-67
2022/09/11 09:15:23;;;;;;;8.95;2.00;;;;;;;;;;4821902;29;20061;-67
2022/09/11 09:18:27;;;;;;;6.07;2.00;;;;;;;;;;4820963;29;20089;-67
2022/09/11 09:21:40;;;;;;;7.00;2.13;;;;;;;;;;4852901;29;20065;-67
2022/09/11 09:24:20;;;;;;;7.47;1.75;;;;;;;;;;4832448;29;20058;-67
2022/09/11 09:26:58;;;;;;;4.45;2.13;;;;;;;;;;4829110;29;20065;-67
2022/09/11 09:29:35;;;;;;;7.20;1.98;;;;;;;;;;4782931;29;20058;-67
2022/09/11 09:32:19;;;;;;;7.80;2.15;;;;;;;;;;4808748;29;20440;-67
2022/09/11 09:34:52;;;;;;;6.93;2.88;;;;;;;;;;4847263;29;20053;-67
2022/09/11 09:37:22;;;;;;;6.80;2.13;;;;;;;;;;4813360;29;20060;-69
2022/09/11 09:39:51;;;;;;;6.38;2.47;;;;;;;;;;4842653;29;20064;-68
2022/09/11 09:42:58;;;;;;;5.93;2.33;;;;;;;;;;4824485;29;20058;-67
2022/09/11 09:45:36;;;;;;;5.20;2.33;;;;;;;;;;4824495;29;20061;-67
2022/09/11 09:48:19;;;;;;;7.57;2.33;;;;;;;;;;4802059;29;21045;-67
2022/09/11 09:51:03;;;;;;;8.25;3.03;;;;;;;;;;4802729;29;20059;-67
2022/09/11 09:54:00;;;;;;;6.22;2.38;;;;;;;;;;4804280;29;20058;-66
2022/09/11 09:56:36;;;;;;;4.47;1.80;;;;;;;;;;4821443;29;20104;-67
2022/09/11 09:59:17;;;;;;;4.50;1.92;;;;;;;;;;4832882;29;20054;-67
2022/09/11 10:01:50;;;;;;;5.68;2.00;;;;;;;;;;4878267;29;20060;-67
2022/09/11 10:04:29;;;;;;;9.25;3.30;;;;;;;;;;4895229;29;20063;-67
2022/09/11 10:07:10;;;;;;;9.23;2.63;;;;;;;;;;4912487;29;20071;-67
2022/09/11 10:09:50;;;;;;;7.95;2.70;;;;;;;;;;4923023;29;20052;-67
2022/09/11 10:12:31;;;;;;;8.30;2.78;;;;;;;;;;4932465;29;20058;-67
2022/09/11 10:15:02;;;;;;;8.18;2.75;;;;;;;;;;4942340;28;20431;-67
2022/09/11 10:17:35;;;;;;;5.88;2.30;;;;;;;;;;4920372;28;20446;-67
2022/09/11 10:20:25;;;;;;;5.93;2.42;;;;;;;;;;4973778;28;20061;-67
2022/09/11 10:22:56;;;;;;;6.88;2.70;;;;;;;;;;4990483;28;20058;-67
2022/09/11 10:25:28;;;;;;;8.45;2.80;;;;;;;;;;4990533;28;20514;-67
2022/09/11 10:28:16;;;;;;;;;;;;;;;;;;4990898;28;20058;-67
2022/09/11 10:30:58;;;;;;;7.25;2.83;;;;;;;;;;4990106;28;19933;-67
2022/09/11 10:33:28;;;;;;;13.23;3.28;;;;;;;;;;5009336;28;20505;-67
2022/09/11 10:36:03;;;;;;;11.75;3.70;;;;;;;;;;5009691;28;20549;-67
2022/09/11 10:38:44;;;;;;;11.32;3.65;;;;;;;;;;5006622;28;20447;-67
2022/09/11 10:41:24;;;;;;;9.70;3.40;;;;;;;;;;4990215;28;20063;-67
2022/09/11 10:44:13;;;;;;;8.18;3.60;;;;;;;;;;4962347;28;20055;-67
2022/09/11 10:46:44;;;;;;;11.38;3.50;;;;;;;;;;4951353;28;20063;-67
2022/09/11 10:49:22;;;;;;;8.48;3.03;;;;;;;;;;4947491;28;20067;-67
2022/09/11 10:52:21;;;;;;;7.00;3.17;;;;;;;;;;4926382;28;20055;-67
2022/09/11 10:55:07;;;;;;;11.23;3.92;;;;;;;;;;4950749;28;20059;-67
2022/09/11 10:57:56;;;;;;;8.50;3.53;;;;;;;;;;4951165;28;20511;-67
2022/09/11 11:00:31;;;;;;;9.85;3.72;;;;;;;;;;4970190;28;20078;-67
2022/09/11 11:03:24;;;;;;;6.00;2.58;;;;;;;;;;4970402;28;20062;-67
2022/09/11 11:06:18;;;;;;;5.47;2.60;;;;;;;;;;4970226;28;20058;-67
2022/09/11 11:09:05;;;;;;;7.38;2.55;;;;;;;;;;4970162;28;20051;-67
2022/09/11 11:11:54;;;;;;;9.00;2.72;;;;;;;;;;4970328;28;20063;-67
2022/09/11 11:14:43;;;;;;;9.77;3.03;;;;;;;;;;4970341;28;20067;-67
2022/09/11 11:17:30;;;;;;;7.80;2.75;;;;;;;;;;4970035;28;20059;-68
2022/09/11 11:20:25;;;;;;;9.65;3.83;;;;;;;;;;4970378;28;20066;-67
2022/09/11 11:23:13;;;;;;;9.82;3.97;;;;;;;;;;4989866;28;20522;-67
2022/09/11 11:26:10;;;;;;;9.38;3.10;;;;;;;;;;4989557;28;20522;-67
2022/09/11 11:29:20;;;;;;;8.63;3.83;;;;;;;;;;4903432;29;20072;-67
2022/09/11 11:32:29;;;;;;;8.20;3.47;;;;;;;;;;4929721;28;20061;-67
2022/09/11 11:35:30;;;;;;;7.43;3.20;;;;;;;;;;4985685;28;20431;-67
2022/09/11 11:38:26;;;;;;;12.15;3.78;;;;;;;;;;4989324;28;20050;-69
2022/09/11 11:41:06;;;;;;;5.88;2.53;;;;;;;;;;4991607;28;20062;-68
2022/09/11 11:43:38;;;;;;;;;;;;;;;;;;5009643;28;20050;-69
2022/09/11 11:46:11;;;;;;;8.32;2.63;;;;;;;;;;4929932;28;19944;-68
2022/09/11 11:48:50;;;;;;;;;;;;;;;;;;4994037;28;20619;-68
2022/09/11 11:51:27;;;;;;;7.07;2.88;;;;;;;;;;4973698;28;19929;-68
2022/09/11 11:54:24;;;;;;;6.80;2.80;;;;;;;;;;4958035;28;20059;-69
2022/09/11 11:57:08;;;;;;;5.72;2.20;;;;;;;;;;4925761;28;20066;-69
2022/09/11 12:00:07;;;;;;;5.32;2.15;;;;;;;;;;4973489;28;20055;-69
2022/09/11 12:02:56;;;;;;;4.65;1.67;;;;;;;;;;4973781;28;20046;-68
2022/09/11 12:05:33;;;;;;;5.22;2.33;;;;;;;;;;4990560;28;20452;-69
2022/09/11 12:08:10;;;;;;;7.63;2.50;;;;;;;;;;5032415;28;20050;-68
2022/09/11 12:10:54;;;;;;;8.73;2.55;;;;;;;;;;5031915;28;20053;-68
2022/09/11 12:13:31;;;;;;;6.55;2.20;;;;;;;;;;5032018;28;20065;-69
2022/09/11 12:16:07;;;;;;;8.95;2.58;;;;;;;;;;5038885;28;20153;-69
2022/09/11 12:18:42;;;;;;;7.68;2.92;;;;;;;;;;5032023;28;20049;-69
2022/09/11 12:21:23;;;;;;;7.38;2.53;;;;;;;;;;4999651;28;20060;-68
2022/09/11 12:23:57;;;;;;;7.55;2.25;;;;;;;;;;5032246;28;20520;-68
2022/09/11 12:26:30;;;;;;;5.85;1.95;;;;;;;;;;5051994;28;20049;-69
2022/09/11 12:29:13;;;;;;;6.68;1.92;;;;;;;;;;5047233;28;20205;-69
2022/09/11 12:31:49;;;;;;;5.25;2.00;;;;;;;;;;5040568;28;20551;-70
2022/09/11 12:34:46;;;;;;;3.10;1.08;;;;;;;;;;5034399;28;20042;-69
2022/09/11 12:37:31;;;;;;;2.80;1.30;;;;;;;;;;5011998;28;20060;-68
2022/09/11 12:40:31;;;;;;;5.50;2.20;;;;;;;;;;5008319;28;21273;-69
2022/09/11 12:43:27;;;;;;;4.35;1.45;;;;;;;;;;5032900;28;20053;-69
2022/09/11 12:45:58;;;;;;;4.25;1.73;;;;;;;;;;5031456;28;20046;-69
2022/09/11 12:48:37;;;;;;;3.22;1.50;;;;;;;;;;5031358;28;20068;-69
2022/09/11 12:51:24;;;;;;;3.92;1.63;;;;;;;;;;5030191;28;20433;-67
2022/09/11 12:54:01;;;;;;;4.38;1.40;;;;;;;;;;4991671;28;20042;-68
2022/09/11 12:56:37;;;;;;;5.75;1.73;;;;;;;;;;4991833;28;20055;-70
2022/09/11 12:59:09;;;;;;;4.80;1.67;;;;;;;;;;4959246;28;20184;-67
2022/09/11 13:01:44;;;;;;;3.88;1.80;;;;;;;;;;4991921;28;20057;-69
2022/09/11 13:04:21;;;;;;;3.78;1.60;;;;;;;;;;4991956;28;20061;-69
2022/09/11 13:06:57;;;;;;;4.00;1.50;;;;;;;;;;4991692;28;20054;-68
2022/09/11 13:09:32;;;;;;;4.45;1.60;;;;;;;;;;4991866;28;21148;-69
2022/09/11 13:12:23;;;;;;;4.38;1.50;;;;;;;;;;4991863;28;20058;-69
2022/09/11 13:14:57;;;;;;;3.17;1.48;;;;;;;;;;4956745;28;20062;-69
2022/09/11 13:17:45;;;;;;;4.43;1.70;;;;;;;;;;4940476;28;20054;-71
2022/09/11 13:20:15;;;;;;;3.95;1.27;;;;;;;;;;4983380;28;20065;-69
2022/09/11 13:22:46;;;;;;;15.02;7.60;;;;;;;;;;4991613;28;20069;-70
2022/09/11 13:25:18;;;;;;;4.57;2.05;;;;;;;;;;4943212;28;20455;-68
2022/09/11 13:27:50;;;;;;;3.90;1.60;;;;;;;;;;4991651;28;20050;-69
2022/09/11 13:30:23;;;;;;;2.75;1.40;;;;;;;;;;4991332;28;20061;-70
2022/09/11 13:33:07;;;;;;;3.42;1.35;;;;;;;;;;4966113;28;20057;-70
2022/09/11 13:35:38;;;;;;;3.88;1.60;;;;;;;;;;5047987;28;20045;-71
2022/09/11 13:38:23;;;;;;;4.72;1.58;;;;;;;;;;5035479;28;20061;-67
2022/09/11 13:41:02;;;;;;;3.53;1.52;;;;;;;;;;5036524;28;20968;-70
2022/09/11 13:43:43;;;;;;;4.13;1.40;;;;;;;;;;4993197;28;20084;-71
2022/09/11 13:46:16;;;;;;;6.65;3.70;;;;;;;;;;5011152;28;20068;-72
2022/09/11 13:48:50;;;;;;;5.10;2.80;;;;;;;;;;5045623;28;20052;-71
2022/09/11 13:51:26;;;;;;;3.95;1.45;;;;;;;;;;5041454;28;20049;-71
2022/09/11 13:54:16;;;;;;;5.65;1.85;;;;;;;;;;5045470;28;20052;-72
2022/09/11 13:57:32;;;;;;;3.30;1.80;;;;;;;;;;5014679;28;20437;-72
2022/09/11 14:00:03;;;;;;;6.70;2.78;;;;;;;;;;4985764;28;20055;-73
2022/09/11 14:02:51;;;;;;;4.13;2.08;;;;;;;;;;4973075;28;20090;-73
2022/09/11 14:05:27;;;;;;;5.20;2.08;;;;;;;;;;4973401;28;20502;-71
2022/09/11 14:08:06;;;;;;;6.35;2.03;;;;;;;;;;4987363;28;20050;-73
2022/09/11 14:10:43;;;;;;;3.83;1.80;;;;;;;;;;4937274;28;20055;-72
2022/09/11 14:13:16;;;;;;;6.28;1.88;;;;;;;;;;4988349;28;20062;-72
2022/09/11 14:15:49;;;;;;;6.05;2.00;;;;;;;;;;4987371;28;20050;-71
2022/09/11 14:18:32;;;;;;;4.88;1.67;;;;;;;;;;4986351;28;20051;-74
2022/09/11 14:21:12;;;;;;;6.22;3.65;;;;;;;;;;4983760;28;20425;-72
2022/09/11 14:23:51;;;;;;;11.23;4.55;;;;;;;;;;4989233;28;20434;-73
2022/09/11 14:26:40;;;;;;;6.25;2.88;;;;;;;;;;4987182;28;20061;-73
2022/09/11 14:29:26;;;;;;;5.72;3.28;;;;;;;;;;4969668;28;20062;-72
2022/09/11 14:32:28;;;;;;;8.27;3.63;;;;;;;;;;4969199;28;20059;-73
2022/09/11 14:35:05;;;;;;;5.05;2.28;;;;;;;;;;4967878;28;20050;-74
2022/09/11 14:37:44;;;;;;;5.43;2.03;;;;;;;;;;5025717;28;20111;-71
2022/09/11 14:40:17;;;;;;;6.43;2.22;;;;;;;;;;5054146;28;20053;-74
2022/09/11 14:42:48;;;;;;;6.47;1.98;;;;;;;;;;5057518;28;20532;-75
2022/09/11 14:45:24;;;;;;;4.10;1.83;;;;;;;;;;5061865;28;20480;-75
2022/09/11 14:47:55;;;;;;;7.50;2.78;;;;;;;;;;5049425;28;20095;-75
2022/09/11 14:50:25;;;;;;;8.55;4.50;;;;;;;;;;5060502;28;20048;-71
2022/09/11 14:52:55;;;;;;;8.80;3.55;;;;;;;;;;5047006;28;20049;-76
2022/09/11 14:55:26;;;;;;;9.38;4.05;;;;;;;;;;5014477;28;20061;-72
2022/09/11 14:57:56;;;;;;;9.07;4.00;;;;;;;;;;5043889;28;20053;-75
2022/09/11 15:00:26;;;;;;;8.93;4.15;;;;;;;;;;5030921;28;20057;-72
2022/09/11 15:02:56;;;;;;;8.93;4.15;;;;;;;;;;5047524;28;20045;-72
2022/09/11 15:05:26;;;;;;;6.38;3.10;;;;;;;;;;5028184;28;20049;-72
2022/09/11 15:07:57;;;;;;;10.63;3.80;;;;;;;;;;5026912;28;20057;-72
2022/09/11 15:10:28;;;;;;;6.40;3.35;;;;;;;;;;4991647;28;20053;-72
2022/09/11 15:12:58;;;;;;;7.75;3.22;;;;;;;;;;4950091;28;20049;-74
2022/09/11 15:15:30;;;;;;;6.22;2.97;;;;;;;;;;4934188;28;20507;-72
2022/09/11 15:18:01;;;;;;;7.68;2.97;;;;;;;;;;4952099;28;20074;-73
2022/09/11 15:20:31;;;;;;;7.18;2.75;;;;;;;;;;4966611;28;20055;-74
2022/09/11 15:23:01;;;;;;;7.35;2.97;;;;;;;;;;4967489;28;20619;-75
2022/09/11 15:25:31;;;;;;;6.18;2.75;;;;;;;;;;4950958;28;20538;-75
2022/09/11 15:28:01;;;;;;;6.70;2.90;;;;;;;;;;4948429;28;20059;-75
2022/09/11 15:30:32;;;;;;;8.18;3.60;;;;;;;;;;4919796;29;20063;-73
2022/09/11 15:33:03;;;;;;;7.75;3.28;;;;;;;;;;4928835;29;20435;-73
2022/09/11 15:35:33;;;;;;;8.02;2.47;;;;;;;;;;4893062;29;20063;-75
2022/09/11 15:38:04;;;;;;;8.20;2.90;;;;;;;;;;4895477;29;20476;-75
2022/09/11 15:40:35;;;;;;;9.25;3.55;;;;;;;;;;4912337;29;20056;-76
2022/09/11 15:43:05;;;;;;;7.53;3.13;;;;;;;;;;4920392;29;20060;-76